Plummers Mill, Kentucky
Current Conditions -  °F | °C
As of 4:50 PM on Saturday 25 Oct 2014 (Local Time) from KSYM Reporting Station
Clear Clear  
Wind Chill: 68°   Ceiling: Unl
Heat Index: 68°   Visibility: 10mi
Dew Point: 55°   Wind: 7mph
Humidity: 64%   Direction: 240°WSW
Pressure: 29.97"   Gusts: NA
Location:  38.3186°N, 83.5612°W
Report Text: KSYM 252050Z AUTO 24006KT 10SM CLR 20/13 A2997 RMK AO2
Loading
Personal Weather Stations






























Interactive Weather Map
Tropical Storm Tracking
New forecast layout! Learn more

10-Day Weather Forecast

Advertisements
Track Severe Weather on mobile